createdAt,value
2022-09-02T00:12:15.092Z,101720
2022-09-02T00:22:15.093Z,101720
2022-09-02T00:27:15.083Z,101710
2022-09-02T00:32:15.098Z,101710
2022-09-02T00:47:15.090Z,101710
2022-09-02T00:52:15.112Z,101700
2022-09-02T00:57:15.105Z,101700
2022-09-02T01:02:15.286Z,101700
2022-09-02T01:07:15.789Z,101690
2022-09-02T01:12:15.111Z,101690
2022-09-02T01:17:15.113Z,101690
2022-09-02T01:22:15.107Z,101690
2022-09-02T01:32:15.115Z,101690
2022-09-02T01:37:15.112Z,101690
2022-09-02T01:52:15.124Z,101670
2022-09-02T01:57:15.127Z,101670
2022-09-02T02:02:15.273Z,101670
2022-09-02T02:12:15.121Z,101670
2022-09-02T02:17:15.125Z,101670
2022-09-02T02:22:15.141Z,101670
2022-09-02T02:27:15.134Z,101670
2022-09-02T02:32:15.140Z,101660
2022-09-02T02:37:15.130Z,101660
2022-09-02T02:47:15.137Z,101660
2022-09-02T02:52:15.156Z,101660
2022-09-02T02:57:15.143Z,101660
2022-09-02T03:02:15.267Z,101670
2022-09-02T03:07:15.150Z,101660
2022-09-02T03:12:15.153Z,101660
2022-09-02T03:22:15.154Z,101660
2022-09-02T03:27:15.160Z,101650
2022-09-02T03:32:15.167Z,101650
2022-09-02T03:42:19.642Z,101650
2022-09-02T03:52:15.185Z,101650
2022-09-02T03:57:15.172Z,101640
2022-09-02T04:07:15.176Z,101630
2022-09-02T04:17:15.180Z,101620
2022-09-02T04:22:15.188Z,101630
2022-09-02T04:27:15.204Z,101620
2022-09-02T04:32:15.409Z,101620
2022-09-02T04:37:15.200Z,101620
2022-09-02T04:47:15.190Z,101610
2022-09-02T04:57:15.210Z,101610
2022-09-02T05:07:15.206Z,101610
2022-09-02T05:12:15.195Z,101610
2022-09-02T05:17:15.210Z,101620
2022-09-02T05:22:15.210Z,101610
2022-09-02T05:27:15.211Z,101610
2022-09-02T05:42:15.223Z,101610
2022-09-02T05:47:15.216Z,101610
2022-09-02T05:52:15.222Z,101610
2022-09-02T06:02:15.364Z,101620
2022-09-02T06:07:15.225Z,101620
2022-09-02T06:12:15.229Z,101610
2022-09-02T06:27:15.242Z,101610
2022-09-02T06:32:15.225Z,101610
2022-09-02T06:37:15.261Z,101610
2022-09-02T06:47:15.252Z,101620
2022-09-02T06:52:15.286Z,101610
2022-09-02T06:57:15.243Z,101610
2022-09-02T07:02:15.363Z,101600
2022-09-02T07:07:15.322Z,101600
2022-09-02T07:12:15.257Z,101600
2022-09-02T07:17:15.306Z,101590
2022-09-02T07:22:18.970Z,101600
2022-09-02T07:27:15.267Z,101590
2022-09-02T07:32:15.259Z,101590
2022-09-02T07:37:15.255Z,101590
2022-09-02T07:42:15.302Z,101590
2022-09-02T07:47:15.270Z,101590
2022-09-02T07:52:15.281Z,101590
2022-09-02T07:57:15.274Z,101580
2022-09-02T08:07:15.262Z,101580
2022-09-02T08:12:17.784Z,101570
2022-09-02T08:17:15.269Z,101570
2022-09-02T08:27:15.271Z,101570
2022-09-02T08:32:15.372Z,101570
2022-09-02T08:37:15.275Z,101560
2022-09-02T08:42:15.276Z,101560
2022-09-02T08:47:15.285Z,101550
2022-09-02T08:52:17.771Z,101550
2022-09-02T08:57:15.301Z,101540
2022-09-02T09:02:17.803Z,101530
2022-09-02T09:07:15.287Z,101530
2022-09-02T09:22:15.295Z,101530
2022-09-02T09:27:15.298Z,101530
2022-09-02T09:32:15.337Z,101530
2022-09-02T09:37:15.322Z,101520
2022-09-02T09:42:15.303Z,101520
2022-09-02T09:47:18.005Z,101510
2022-09-02T09:52:15.317Z,101510
2022-09-02T09:57:15.333Z,101500
2022-09-02T10:02:15.391Z,101490
2022-09-02T10:07:15.331Z,101480
2022-09-02T10:12:15.309Z,101480
2022-09-02T10:17:15.317Z,101470
2022-09-02T10:22:15.347Z,101470
2022-09-02T10:27:15.320Z,101460
2022-09-02T10:32:15.341Z,101470
2022-09-02T10:37:15.340Z,101460
2022-09-02T10:42:15.325Z,101450
2022-09-02T10:47:15.389Z,101440
2022-09-02T10:52:15.385Z,101440
2022-09-02T10:57:15.352Z,101430
2022-09-02T11:02:15.339Z,101430
2022-09-02T11:07:15.342Z,101420
2022-09-02T11:12:16.428Z,101420
2022-09-02T11:22:15.351Z,101420
2022-09-02T11:27:32.102Z,101420
2022-09-02T11:37:16.825Z,101420
2022-09-02T11:42:15.413Z,101410
2022-09-02T11:47:15.356Z,101400
2022-09-02T11:52:15.405Z,101390
2022-09-02T11:57:15.359Z,101390
2022-09-02T12:02:15.361Z,101400
2022-09-02T12:07:15.367Z,101380
2022-09-02T12:12:15.367Z,101380
2022-09-02T12:17:15.374Z,101370
2022-09-02T12:27:15.383Z,101360
2022-09-02T12:32:15.383Z,101350
2022-09-02T12:37:15.385Z,101350
2022-09-02T12:42:15.383Z,101360
2022-09-02T12:47:15.383Z,101350
2022-09-02T12:52:15.380Z,101340
2022-09-02T12:57:15.389Z,101330
2022-09-02T13:02:15.405Z,101330
2022-09-02T13:07:15.384Z,101320
2022-09-02T13:12:15.385Z,101330
2022-09-02T13:17:35.187Z,101320
2022-09-02T13:22:15.392Z,101310
2022-09-02T13:27:15.408Z,101310
2022-09-02T13:32:15.410Z,101310
2022-09-02T13:37:15.414Z,101310
2022-09-02T13:42:15.407Z,101300
2022-09-02T13:52:16.925Z,101310
2022-09-02T13:57:15.429Z,101310
2022-09-02T14:02:15.709Z,101310
2022-09-02T14:07:15.412Z,101310
2022-09-02T14:12:15.435Z,101300
2022-09-02T14:17:15.424Z,101290
2022-09-02T14:27:17.934Z,101270
2022-09-02T14:32:15.446Z,101270
2022-09-02T14:37:15.433Z,101260
2022-09-02T14:42:15.431Z,101250
2022-09-02T14:47:15.442Z,101240
2022-09-02T14:52:15.531Z,101240
2022-09-02T14:57:15.436Z,101240
2022-09-02T15:07:15.446Z,101220
2022-09-02T15:12:15.442Z,101230
2022-09-02T15:17:15.449Z,101220
2022-09-02T15:22:15.456Z,101220
2022-09-02T15:27:15.454Z,101210
2022-09-02T15:32:15.451Z,101210
2022-09-02T15:37:15.464Z,101210
2022-09-02T15:42:15.481Z,101210
2022-09-02T15:47:15.458Z,101200
2022-09-02T15:52:15.477Z,101200
2022-09-02T15:57:15.470Z,101190
2022-09-02T16:02:15.528Z,101190
2022-09-02T16:07:16.832Z,101190
2022-09-02T16:12:15.490Z,101180
2022-09-02T16:17:15.477Z,101180
2022-09-02T16:22:15.484Z,101180
2022-09-02T16:27:15.477Z,101180
2022-09-02T16:32:24.675Z,101170
2022-09-02T16:37:15.491Z,101170
2022-09-02T16:42:15.490Z,101160
2022-09-02T16:47:15.498Z,101160
2022-09-02T16:52:15.491Z,101150
2022-09-02T16:57:15.498Z,101160
2022-09-02T17:02:15.536Z,101150
2022-09-02T17:07:15.498Z,101150
2022-09-02T17:17:15.501Z,101150
2022-09-02T17:22:15.507Z,101150
2022-09-02T17:27:15.510Z,101140
2022-09-02T17:32:15.521Z,101140
2022-09-02T17:37:15.509Z,101140
2022-09-02T17:42:15.528Z,101140
2022-09-02T17:47:15.516Z,101150
2022-09-02T17:57:15.524Z,101150
2022-09-02T18:02:15.735Z,101150
2022-09-02T18:07:15.518Z,101150
2022-09-02T18:12:15.535Z,101150
2022-09-02T18:17:15.576Z,101150
2022-09-02T18:22:15.534Z,101150
2022-09-02T18:27:15.543Z,101150
2022-09-02T18:32:15.540Z,101150
2022-09-02T18:37:15.536Z,101150
2022-09-02T18:47:15.542Z,101150
2022-09-02T18:57:15.541Z,101160
2022-09-02T19:02:15.707Z,101160
2022-09-02T19:07:15.544Z,101160
2022-09-02T19:12:15.551Z,101170
2022-09-02T19:17:15.571Z,101170
2022-09-02T19:27:15.560Z,101180
2022-09-02T19:32:15.642Z,101190
2022-09-02T19:42:15.575Z,101190
2022-09-02T19:48:04.977Z,101190
2022-09-02T20:02:15.657Z,101190
2022-09-02T20:22:15.587Z,101190
2022-09-02T20:32:15.596Z,101190
2022-09-02T20:37:15.585Z,101200
2022-09-02T20:42:15.599Z,101190
2022-09-02T20:47:17.641Z,101200
2022-09-02T20:52:15.593Z,101200
2022-09-02T20:57:15.600Z,101200
2022-09-02T21:02:15.678Z,101190
2022-09-02T21:07:15.598Z,101180
2022-09-02T21:12:15.617Z,101180
2022-09-02T21:17:15.614Z,101180
2022-09-02T21:22:15.626Z,101180
2022-09-02T21:27:15.611Z,101180
2022-09-02T21:32:15.628Z,101180
2022-09-02T21:37:15.819Z,101180
2022-09-02T21:52:15.624Z,101180
2022-09-02T21:57:15.633Z,101180
2022-09-02T22:02:15.714Z,101180
2022-09-02T22:07:15.629Z,101180
2022-09-02T22:17:15.635Z,101180
2022-09-02T22:22:15.637Z,101170
2022-09-02T22:27:15.644Z,101170
2022-09-02T22:37:15.650Z,101170
2022-09-02T22:42:15.634Z,101170
2022-09-02T22:47:15.641Z,101170
2022-09-02T22:52:15.647Z,101170
2022-09-02T22:57:15.654Z,101170
2022-09-02T23:02:17.139Z,101160
2022-09-02T23:07:15.659Z,101160
2022-09-02T23:12:15.663Z,101160
2022-09-02T23:22:15.657Z,101160
2022-09-02T23:27:15.684Z,101160
2022-09-02T23:37:15.679Z,101150
2022-09-02T23:42:15.685Z,101150
2022-09-02T23:47:15.682Z,101150
2022-09-02T23:57:15.669Z,101140
